createdAt,value
2018-06-30T00:00:16.084Z,71.10
2018-06-30T00:02:45.633Z,71.90
2018-06-30T00:05:16.556Z,71.10
2018-06-30T00:07:45.420Z,71.30
2018-06-30T00:10:14.872Z,71.50
2018-06-30T00:12:43.529Z,71.70
2018-06-30T00:15:12.429Z,72.00
2018-06-30T00:17:40.788Z,71.90
2018-06-30T00:20:09.891Z,72.20
2018-06-30T00:22:39.815Z,72.50
2018-06-30T00:25:09.042Z,72.60
2018-06-30T00:27:37.989Z,73.50
2018-06-30T00:32:34.652Z,73.40
2018-06-30T00:35:03.593Z,73.40
2018-06-30T00:37:31.939Z,73.30
2018-06-30T00:39:59.665Z,73.30
2018-06-30T00:42:27.269Z,74.20
2018-06-30T00:45:02.659Z,74.00
2018-06-30T00:47:31.085Z,74.10
2018-06-30T00:49:58.815Z,74.10
2018-06-30T00:52:26.394Z,74.50
2018-06-30T00:54:59.639Z,74.50
2018-06-30T00:57:27.258Z,74.50
2018-06-30T00:59:55.145Z,74.10
2018-06-30T01:02:22.697Z,74.10
2018-06-30T01:05:03.314Z,74.00
2018-06-30T01:07:31.476Z,74.50
2018-06-30T01:09:59.158Z,74.80
2018-06-30T01:12:26.943Z,74.90
2018-06-30T01:14:54.577Z,75.20
2018-06-30T01:17:22.249Z,75.20
2018-06-30T01:19:50.332Z,75.30
2018-06-30T01:22:18.031Z,75.70
2018-06-30T01:24:46.319Z,75.80
2018-06-30T01:27:16.105Z,76.20
2018-06-30T01:29:44.444Z,76.60
2018-06-30T01:32:13.196Z,76.80
2018-06-30T01:34:41.907Z,76.80
2018-06-30T01:37:11.939Z,77.20
2018-06-30T01:39:41.196Z,77.10
2018-06-30T01:42:09.885Z,77.20
2018-06-30T01:44:38.606Z,77.30
2018-06-30T01:47:08.049Z,77.50
2018-06-30T01:49:37.301Z,77.70
2018-06-30T01:52:07.493Z,77.60
2018-06-30T01:54:36.894Z,77.70
2018-06-30T01:57:05.536Z,78.10
2018-06-30T01:59:34.452Z,78.30
2018-06-30T02:02:03.692Z,78.30
2018-06-30T02:04:32.913Z,78.60
2018-06-30T02:07:02.253Z,78.20
2018-06-30T02:09:30.388Z,78.30
2018-06-30T02:11:58.197Z,78.30
2018-06-30T02:14:25.795Z,78.50
2018-06-30T02:16:53.394Z,78.90
2018-06-30T02:19:21.002Z,79.00
2018-06-30T02:21:48.894Z,78.50
2018-06-30T02:24:17.658Z,79.40
2018-06-30T02:26:46.412Z,79.30
2018-06-30T02:29:15.365Z,80.00
2018-06-30T02:31:45.265Z,79.30
2018-06-30T02:34:14.725Z,79.30
2018-06-30T02:36:43.729Z,79.70
2018-06-30T02:39:12.618Z,79.80
2018-06-30T02:41:41.450Z,80.50
2018-06-30T02:44:11.232Z,81.00
2018-06-30T02:46:40.454Z,81.20
2018-06-30T02:49:09.653Z,81.50
2018-06-30T02:51:39.059Z,81.50
2018-06-30T02:54:08.454Z,81.80
2018-06-30T02:56:38.200Z,82.10
2018-06-30T02:59:06.755Z,82.80
2018-06-30T03:01:36.060Z,83.00
2018-06-30T03:04:05.030Z,83.20
2018-06-30T03:06:34.909Z,82.90
2018-06-30T03:09:04.719Z,82.90
2018-06-30T03:11:36.278Z,83.90
2018-06-30T03:14:05.535Z,82.90
2018-06-30T03:16:35.823Z,82.80
2018-06-30T03:19:04.499Z,82.80
2018-06-30T03:21:33.328Z,82.60
2018-06-30T03:24:01.944Z,82.60
2018-06-30T03:26:29.916Z,83.60
2018-06-30T03:28:59.660Z,82.90
2018-06-30T03:31:27.433Z,83.00
2018-06-30T03:33:54.966Z,83.20
2018-06-30T03:36:22.829Z,83.10
2018-06-30T03:38:50.463Z,83.10
2018-06-30T03:41:18.502Z,83.20
2018-06-30T03:43:47.127Z,83.30
2018-06-30T03:46:15.653Z,83.50
2018-06-30T03:48:44.814Z,83.60
2018-06-30T03:51:13.186Z,83.70
2018-06-30T03:53:41.699Z,83.70
2018-06-30T03:58:38.391Z,83.70
2018-06-30T04:01:07.711Z,83.70
2018-06-30T04:03:37.584Z,83.90
2018-06-30T04:06:08.123Z,84.10
2018-06-30T04:08:38.267Z,84.10
2018-06-30T04:11:08.675Z,84.20
2018-06-30T04:13:38.528Z,84.30
2018-06-30T04:18:37.093Z,84.50
2018-06-30T04:21:05.918Z,84.60
2018-06-30T04:23:40.142Z,84.70
2018-06-30T04:26:13.260Z,84.40
2018-06-30T04:28:43.952Z,84.20
2018-06-30T04:31:13.279Z,84.10
2018-06-30T04:33:43.761Z,84.80
2018-06-30T04:36:15.919Z,83.90
2018-06-30T04:38:44.804Z,83.80
2018-06-30T04:41:13.630Z,83.80
2018-06-30T04:43:43.286Z,83.60
2018-06-30T04:46:11.892Z,83.50
2018-06-30T04:48:41.388Z,83.30
2018-06-30T04:51:10.417Z,83.00
2018-06-30T04:53:41.617Z,82.90
2018-06-30T04:56:11.741Z,83.50
2018-06-30T04:58:40.700Z,82.30
2018-06-30T05:01:09.458Z,82.10
2018-06-30T05:03:39.488Z,82.00
2018-06-30T05:06:09.253Z,81.70
2018-06-30T05:08:37.497Z,81.70
2018-06-30T05:11:05.921Z,81.20
2018-06-30T05:16:09.086Z,80.80
2018-06-30T05:18:39.136Z,80.60
2018-06-30T05:21:08.594Z,80.20
2018-06-30T05:23:37.946Z,80.20
2018-06-30T05:26:06.473Z,79.70
2018-06-30T05:28:36.000Z,79.70
2018-06-30T05:31:04.736Z,79.50
2018-06-30T05:33:33.330Z,79.20
2018-06-30T05:36:01.080Z,79.30
2018-06-30T05:38:28.744Z,79.80
2018-06-30T05:40:56.487Z,80.10
2018-06-30T05:43:24.077Z,80.10
2018-06-30T05:45:51.758Z,80.00
2018-06-30T05:48:24.675Z,80.00
2018-06-30T05:50:53.298Z,79.50
2018-06-30T05:53:33.461Z,78.10
2018-06-30T05:56:01.980Z,77.80
2018-06-30T05:58:35.779Z,76.60
2018-06-30T06:01:04.406Z,76.30
2018-06-30T06:03:34.042Z,75.80
2018-06-30T06:06:02.910Z,75.60
2018-06-30T06:08:30.926Z,75.10
2018-06-30T06:10:58.535Z,74.40
2018-06-30T06:13:26.242Z,73.80
2018-06-30T06:15:59.781Z,73.60
2018-06-30T06:18:27.442Z,74.20
2018-06-30T06:20:55.067Z,75.00
2018-06-30T06:23:24.710Z,74.70
2018-06-30T06:25:56.722Z,74.50
2018-06-30T06:28:29.793Z,74.20
2018-06-30T06:30:57.895Z,74.80
2018-06-30T06:33:25.541Z,74.70
2018-06-30T06:35:53.158Z,74.80
2018-06-30T06:38:20.774Z,74.90
2018-06-30T06:41:00.145Z,74.40
2018-06-30T06:46:04.867Z,73.70
2018-06-30T06:48:33.376Z,72.30
2018-06-30T06:51:02.341Z,71.80
2018-06-30T06:53:30.302Z,70.40
2018-06-30T06:58:25.218Z,68.90
2018-06-30T07:00:52.875Z,67.90
2018-06-30T07:03:20.787Z,68.50
2018-06-30T07:05:48.508Z,66.60
2018-06-30T07:08:16.164Z,66.80
2018-06-30T07:10:44.128Z,66.60
2018-06-30T07:13:12.502Z,65.70
2018-06-30T07:15:40.904Z,65.60
2018-06-30T07:18:09.442Z,65.40
2018-06-30T07:20:38.036Z,64.80
2018-06-30T07:23:06.456Z,65.60
2018-06-30T07:25:35.334Z,64.70
2018-06-30T07:28:05.155Z,62.80
2018-06-30T07:30:34.695Z,63.50
2018-06-30T07:33:03.296Z,62.90
2018-06-30T07:35:32.215Z,62.50
2018-06-30T07:37:59.916Z,59.50
2018-06-30T07:40:27.484Z,59.30
2018-06-30T07:42:55.159Z,58.70
2018-06-30T07:45:22.729Z,57.10
2018-06-30T07:47:50.270Z,56.80
2018-06-30T07:50:18.198Z,56.90
2018-06-30T07:52:46.050Z,58.70
2018-06-30T07:55:14.492Z,60.20
2018-06-30T07:57:42.917Z,60.50
2018-06-30T08:00:11.465Z,61.20
2018-06-30T08:02:39.787Z,61.50
2018-06-30T08:05:09.285Z,60.10
2018-06-30T08:07:37.283Z,62.40
2018-06-30T08:10:05.509Z,60.30
2018-06-30T08:12:35.342Z,59.30
2018-06-30T08:15:03.598Z,57.90
2018-06-30T08:17:31.505Z,57.70
2018-06-30T08:19:59.268Z,58.70
2018-06-30T08:22:26.927Z,57.60
2018-06-30T08:24:54.539Z,58.10
2018-06-30T08:27:22.147Z,57.00
2018-06-30T08:29:49.889Z,55.90
2018-06-30T08:32:17.664Z,56.30
2018-06-30T08:34:45.656Z,57.30
2018-06-30T08:39:41.428Z,56.20
2018-06-30T08:42:09.938Z,55.80
2018-06-30T08:44:37.821Z,54.20
2018-06-30T08:47:06.723Z,54.70
2018-06-30T08:49:35.142Z,53.60
2018-06-30T08:52:03.640Z,54.40
2018-06-30T08:54:32.745Z,54.00
2018-06-30T08:57:00.431Z,51.50
2018-06-30T08:59:28.061Z,52.90
2018-06-30T09:01:55.660Z,51.70
2018-06-30T09:04:31.876Z,51.60
2018-06-30T09:06:59.468Z,51.60
2018-06-30T09:09:27.002Z,52.30
2018-06-30T09:11:54.619Z,52.70
2018-06-30T09:14:22.143Z,52.90
2018-06-30T09:16:49.678Z,51.60
2018-06-30T09:19:17.519Z,50.90
2018-06-30T09:21:45.313Z,51.00
2018-06-30T09:24:14.585Z,52.00
2018-06-30T09:26:42.513Z,51.30
2018-06-30T09:29:10.749Z,52.10
2018-06-30T09:31:39.060Z,52.70
2018-06-30T09:34:07.367Z,51.90
2018-06-30T09:36:35.572Z,51.80
2018-06-30T09:39:03.767Z,51.20
2018-06-30T09:41:31.738Z,49.80
2018-06-30T09:44:03.886Z,50.90
2018-06-30T09:46:33.917Z,47.10
2018-06-30T09:49:02.752Z,48.30
2018-06-30T09:51:32.740Z,48.10
2018-06-30T09:54:01.017Z,47.70
2018-06-30T09:56:28.733Z,47.10
2018-06-30T09:58:56.408Z,46.50
2018-06-30T10:01:24.036Z,45.50
2018-06-30T10:03:51.570Z,46.80
2018-06-30T10:06:19.315Z,45.80
2018-06-30T10:08:46.923Z,44.50
2018-06-30T10:11:15.184Z,44.30
2018-06-30T10:13:43.302Z,43.50
2018-06-30T10:16:15.338Z,42.00
2018-06-30T10:18:44.240Z,42.50
2018-06-30T10:21:12.625Z,41.60
2018-06-30T10:26:09.862Z,41.40
2018-06-30T10:28:38.975Z,38.90
2018-06-30T10:31:07.598Z,39.30
2018-06-30T10:33:37.129Z,38.10
2018-06-30T10:36:06.072Z,37.40
2018-06-30T10:38:37.544Z,37.10
2018-06-30T10:41:05.976Z,38.10
2018-06-30T10:46:03.228Z,37.20
2018-06-30T10:51:00.117Z,38.70
2018-06-30T10:53:27.711Z,39.00
2018-06-30T10:58:22.714Z,37.40
2018-06-30T11:00:50.270Z,38.40
2018-06-30T11:03:18.251Z,37.20
2018-06-30T11:05:46.692Z,37.10
2018-06-30T11:08:14.675Z,37.60
2018-06-30T11:10:42.791Z,36.30
2018-06-30T11:13:12.388Z,36.00
2018-06-30T11:15:41.810Z,35.20
2018-06-30T11:18:10.402Z,33.70
2018-06-30T11:20:38.761Z,33.90
2018-06-30T11:25:35.293Z,32.10
2018-06-30T11:28:03.952Z,31.30
2018-06-30T11:30:34.361Z,33.70
2018-06-30T11:33:03.634Z,34.30
2018-06-30T11:35:31.815Z,32.90
2018-06-30T11:37:59.563Z,31.60
2018-06-30T11:40:27.360Z,32.40
2018-06-30T11:42:54.952Z,33.10
2018-06-30T11:45:27.595Z,32.10
2018-06-30T11:47:55.214Z,31.70
2018-06-30T11:50:22.813Z,31.90
2018-06-30T11:52:54.758Z,31.50
2018-06-30T11:55:22.334Z,31.00
2018-06-30T11:57:49.931Z,30.10
2018-06-30T12:00:17.737Z,30.80
2018-06-30T12:02:45.659Z,29.90
2018-06-30T12:05:14.645Z,29.50
2018-06-30T12:07:42.836Z,29.50
2018-06-30T12:10:11.154Z,28.90
2018-06-30T12:12:41.859Z,29.50
2018-06-30T12:15:10.104Z,29.20
2018-06-30T12:17:38.387Z,29.20
2018-06-30T12:20:06.629Z,29.30
2018-06-30T12:22:34.658Z,28.90
2018-06-30T12:25:03.989Z,27.90
2018-06-30T12:27:32.387Z,28.40
2018-06-30T12:30:00.119Z,27.30
2018-06-30T12:32:27.762Z,27.60
2018-06-30T12:34:55.305Z,27.20
2018-06-30T12:37:22.841Z,27.10
2018-06-30T12:39:50.860Z,27.00
2018-06-30T12:42:18.443Z,27.40
2018-06-30T12:44:46.042Z,27.30
2018-06-30T12:47:14.319Z,27.90
2018-06-30T12:49:42.285Z,27.00
2018-06-30T12:52:10.498Z,27.70
2018-06-30T12:54:39.038Z,26.70
2018-06-30T12:57:07.482Z,26.80
2018-06-30T12:59:36.818Z,26.10
2018-06-30T13:02:05.548Z,26.60
2018-06-30T13:04:36.552Z,26.30
2018-06-30T13:07:06.692Z,26.30
2018-06-30T13:09:35.639Z,26.50
2018-06-30T13:12:06.238Z,26.30
2018-06-30T13:14:36.089Z,26.40
2018-06-30T13:17:04.511Z,26.20
2018-06-30T13:24:27.074Z,26.60
2018-06-30T13:26:54.810Z,25.50
2018-06-30T13:29:22.460Z,24.60
2018-06-30T13:31:50.049Z,24.00
2018-06-30T13:36:46.982Z,25.00
2018-06-30T13:39:15.467Z,24.80
2018-06-30T13:41:43.813Z,24.80
2018-06-30T13:44:13.153Z,24.50
2018-06-30T13:46:41.549Z,23.90
2018-06-30T13:49:09.668Z,23.90
2018-06-30T13:51:38.433Z,24.90
2018-06-30T13:54:06.836Z,25.50
2018-06-30T13:56:36.609Z,26.40
2018-06-30T13:59:04.774Z,25.90
2018-06-30T14:01:32.922Z,25.50
2018-06-30T14:04:02.042Z,24.80
2018-06-30T14:06:29.691Z,25.10
2018-06-30T14:08:57.407Z,25.80
2018-06-30T14:11:25.078Z,26.30
2018-06-30T14:13:52.766Z,26.00
2018-06-30T14:16:20.505Z,25.00
2018-06-30T14:18:49.164Z,25.00
2018-06-30T14:21:16.806Z,24.90
2018-06-30T14:23:56.345Z,26.00
2018-06-30T14:26:24.582Z,26.10
2018-06-30T14:28:52.481Z,25.30
2018-06-30T14:31:31.732Z,25.30
2018-06-30T14:34:00.823Z,24.70
2018-06-30T14:36:33.119Z,24.30
2018-06-30T14:39:00.924Z,25.00
2018-06-30T14:41:28.547Z,25.50
2018-06-30T14:43:57.240Z,25.80
2018-06-30T14:46:31.854Z,25.10
2018-06-30T14:48:59.477Z,24.80
2018-06-30T14:51:27.081Z,24.60
2018-06-30T14:53:54.730Z,25.10
2018-06-30T14:56:22.317Z,24.80
2018-06-30T14:58:50.218Z,24.50
2018-06-30T15:01:17.853Z,25.00
2018-06-30T15:03:45.473Z,24.70
2018-06-30T15:06:13.494Z,24.30
2018-06-30T15:08:43.409Z,25.10
2018-06-30T15:11:11.467Z,24.20
2018-06-30T15:13:39.748Z,25.10
2018-06-30T15:16:07.692Z,25.00
2018-06-30T15:18:36.050Z,25.70
2018-06-30T15:21:04.077Z,24.80
2018-06-30T15:23:31.962Z,24.10
2018-06-30T15:25:59.720Z,23.90
2018-06-30T15:28:33.144Z,24.10
2018-06-30T15:33:28.452Z,24.50
2018-06-30T15:36:02.394Z,24.50
2018-06-30T15:38:30.050Z,24.20
2018-06-30T15:40:57.577Z,24.90
2018-06-30T15:43:25.175Z,24.20
2018-06-30T15:48:20.126Z,24.20
2018-06-30T15:50:47.716Z,24.10
2018-06-30T15:53:15.546Z,24.10
2018-06-30T15:55:43.296Z,25.10
2018-06-30T15:58:11.395Z,25.40
2018-06-30T16:00:39.224Z,25.40
2018-06-30T16:03:07.812Z,25.30
2018-06-30T16:05:35.885Z,24.80
2018-06-30T16:08:04.390Z,25.30
2018-06-30T16:10:32.889Z,25.00
2018-06-30T16:13:01.053Z,25.20
2018-06-30T16:15:28.617Z,25.50
2018-06-30T16:17:56.293Z,25.30
2018-06-30T16:22:51.180Z,26.00
2018-06-30T16:25:19.148Z,25.20
2018-06-30T16:27:46.801Z,26.10
2018-06-30T16:30:14.679Z,25.70
2018-06-30T16:32:42.655Z,25.80
2018-06-30T16:35:11.033Z,25.70
2018-06-30T16:37:39.301Z,25.50
2018-06-30T16:40:07.599Z,26.40
2018-06-30T16:42:36.502Z,26.00
2018-06-30T16:45:04.790Z,26.80
2018-06-30T16:47:33.412Z,26.40
2018-06-30T16:50:01.656Z,26.30
2018-06-30T16:52:29.288Z,26.50
2018-06-30T16:54:57.039Z,26.10
2018-06-30T16:57:24.752Z,26.60
2018-06-30T16:59:52.349Z,27.30
2018-06-30T17:02:19.983Z,27.30
2018-06-30T17:04:47.763Z,26.40
2018-06-30T17:07:15.399Z,26.70
2018-06-30T17:09:43.222Z,27.10
2018-06-30T17:12:11.156Z,26.70
2018-06-30T17:14:39.220Z,26.90
2018-06-30T17:17:07.198Z,26.80
2018-06-30T17:19:35.417Z,27.10
2018-06-30T17:22:04.281Z,27.00
2018-06-30T17:24:33.448Z,27.00
2018-06-30T17:27:01.204Z,26.80
2018-06-30T17:29:28.882Z,27.00
2018-06-30T17:31:56.543Z,27.00
2018-06-30T17:34:24.089Z,26.90
2018-06-30T17:36:51.662Z,26.90
2018-06-30T17:39:19.231Z,27.60
2018-06-30T17:41:46.809Z,27.50
2018-06-30T17:44:15.538Z,27.40
2018-06-30T17:46:43.320Z,27.10
2018-06-30T17:49:11.238Z,27.00
2018-06-30T17:51:39.365Z,27.20
2018-06-30T17:54:07.518Z,27.40
2018-06-30T17:56:35.624Z,27.60
2018-06-30T17:59:03.800Z,27.40
2018-06-30T18:01:33.405Z,27.90
2018-06-30T18:04:02.009Z,28.20
2018-06-30T18:06:29.586Z,28.00
2018-06-30T18:08:57.173Z,28.20
2018-06-30T18:11:24.793Z,28.50
2018-06-30T18:13:56.014Z,27.60
2018-06-30T18:16:23.567Z,27.80
2018-06-30T18:18:51.132Z,28.30
2018-06-30T18:21:18.764Z,28.30
2018-06-30T18:23:46.512Z,29.20
2018-06-30T18:26:14.456Z,29.40
2018-06-30T18:28:42.395Z,28.90
2018-06-30T18:31:10.894Z,28.80
2018-06-30T18:33:39.744Z,28.80
2018-06-30T18:36:07.898Z,28.60
2018-06-30T18:38:36.687Z,28.60
2018-06-30T18:41:04.900Z,28.70
2018-06-30T18:43:34.643Z,28.90
2018-06-30T18:46:03.233Z,29.10
2018-06-30T18:48:32.567Z,29.20
2018-06-30T18:51:01.752Z,29.50
2018-06-30T18:53:29.398Z,29.60
2018-06-30T18:55:57.018Z,29.90
2018-06-30T18:58:24.700Z,30.40
2018-06-30T19:00:57.436Z,30.00
2018-06-30T19:03:25.020Z,30.40
2018-06-30T19:05:52.697Z,30.70
2018-06-30T19:08:20.340Z,30.90
2018-06-30T19:10:48.058Z,31.10
2018-06-30T19:13:21.780Z,31.00
2018-06-30T19:15:49.407Z,31.00
2018-06-30T19:18:17.031Z,31.00
2018-06-30T19:20:44.815Z,31.20
2018-06-30T19:23:12.585Z,31.30
2018-06-30T19:25:40.580Z,31.30
2018-06-30T19:28:08.590Z,31.40
2018-06-30T19:30:36.715Z,31.40
2018-06-30T19:33:04.921Z,31.90
2018-06-30T19:35:33.117Z,32.80
2018-06-30T19:38:01.226Z,33.10
2018-06-30T19:40:29.834Z,32.50
2018-06-30T19:42:57.557Z,32.70
2018-06-30T19:45:25.588Z,33.40
2018-06-30T19:47:53.328Z,33.40
2018-06-30T19:50:21.061Z,33.50
2018-06-30T19:52:48.745Z,33.70
2018-06-30T19:55:16.743Z,33.50
2018-06-30T19:57:44.380Z,33.60
2018-06-30T20:00:12.110Z,33.50
2018-06-30T20:02:40.998Z,33.90
2018-06-30T20:05:08.973Z,33.90
2018-06-30T20:10:09.904Z,34.10
2018-06-30T20:12:37.737Z,34.10
2018-06-30T20:15:05.778Z,34.10
2018-06-30T20:17:33.815Z,34.30
2018-06-30T20:20:02.035Z,34.50
2018-06-30T20:22:29.908Z,34.80
2018-06-30T20:24:57.756Z,34.90
2018-06-30T20:29:52.912Z,35.50
2018-06-30T20:32:20.584Z,35.50
2018-06-30T20:34:48.325Z,35.80
2018-06-30T20:37:15.999Z,36.00
2018-06-30T20:39:43.658Z,35.50
2018-06-30T20:42:11.433Z,36.50
2018-06-30T20:44:50.494Z,35.60
2018-06-30T20:47:18.171Z,36.40
2018-06-30T20:49:46.055Z,36.20
2018-06-30T20:54:42.148Z,36.20
2018-06-30T20:57:10.701Z,36.20
2018-06-30T20:59:39.008Z,36.50
2018-06-30T21:02:07.301Z,36.20
2018-06-30T21:04:35.548Z,36.90
2018-06-30T21:07:04.051Z,37.00
2018-06-30T21:09:32.394Z,36.90
2018-06-30T21:12:01.989Z,37.70
2018-06-30T21:14:30.465Z,37.40
2018-06-30T21:16:59.250Z,37.10
2018-06-30T21:19:26.876Z,37.10
2018-06-30T21:22:02.424Z,37.40
2018-06-30T21:24:30.547Z,37.10
2018-06-30T21:26:58.356Z,37.60
2018-06-30T21:29:27.242Z,37.30
2018-06-30T21:31:54.863Z,37.60
2018-06-30T21:34:22.626Z,37.80
2018-06-30T21:36:50.261Z,37.90
2018-06-30T21:39:17.992Z,38.20
2018-06-30T21:41:45.605Z,38.80
2018-06-30T21:44:13.772Z,38.90
2018-06-30T21:46:41.982Z,39.00
2018-06-30T21:49:10.295Z,39.00
2018-06-30T21:51:39.187Z,39.50
2018-06-30T21:54:07.352Z,39.80
2018-06-30T21:56:36.055Z,40.30
2018-06-30T21:59:05.450Z,41.10
2018-06-30T22:01:34.157Z,41.00
2018-06-30T22:04:02.389Z,40.90
2018-06-30T22:06:30.005Z,41.10
2018-06-30T22:08:58.019Z,40.90
2018-06-30T22:11:25.768Z,40.80
2018-06-30T22:13:53.330Z,40.80
2018-06-30T22:16:20.920Z,41.00
2018-06-30T22:18:48.554Z,40.80
2018-06-30T22:21:16.551Z,40.50
2018-06-30T22:23:44.758Z,41.90
2018-06-30T22:26:13.153Z,41.80
2018-06-30T22:28:41.558Z,41.20
2018-06-30T22:31:10.835Z,40.70
2018-06-30T22:33:40.389Z,42.30
2018-06-30T22:36:08.782Z,42.10
2018-06-30T22:38:36.953Z,41.80
2018-06-30T22:41:05.394Z,41.10
2018-06-30T22:43:35.155Z,40.80
2018-06-30T22:46:04.082Z,40.80
2018-06-30T22:48:32.922Z,40.40
2018-06-30T22:51:00.893Z,40.30
2018-06-30T22:53:28.534Z,41.10
2018-06-30T22:55:56.225Z,41.00
2018-06-30T22:58:23.891Z,42.00
2018-06-30T23:00:51.500Z,41.70
2018-06-30T23:03:19.517Z,41.80
2018-06-30T23:05:47.293Z,41.50
2018-06-30T23:08:15.506Z,41.30
2018-06-30T23:10:43.808Z,41.00
2018-06-30T23:13:12.997Z,42.10
2018-06-30T23:15:41.334Z,42.60
2018-06-30T23:18:10.258Z,42.40
2018-06-30T23:20:38.456Z,42.10
2018-06-30T23:23:11.834Z,42.20
2018-06-30T23:25:40.937Z,41.90
2018-06-30T23:28:09.616Z,41.70
2018-06-30T23:30:38.403Z,41.90
2018-06-30T23:35:35.155Z,42.90
2018-06-30T23:40:35.650Z,43.00
2018-06-30T23:43:04.904Z,43.20
2018-06-30T23:45:33.924Z,43.00
2018-06-30T23:48:03.052Z,43.40
2018-06-30T23:50:31.183Z,43.70
2018-06-30T23:52:58.844Z,43.90
2018-06-30T23:55:26.604Z,43.80
2018-06-30T23:57:54.168Z,44.50
